Lincoln Park, New Jersey
Current Conditions -  °F | °C
As of 7:53 AM on Saturday 25 Oct 2014 (Local Time) from KCDW Reporting Station
Clear Clear  
Wind Chill: 42°   Ceiling: Unl
Heat Index: 42°   Visibility: 10mi
Dew Point: 36°   Wind: 0mph
Humidity: 79%   Direction: NA
Pressure: 29.89"   Gusts: NA
Location:  40.92°N, 74.3°W
Report Text: KCDW 251153Z 00000KT 10SM CLR 06/02 A2989 RMK AO2 SLP125 T00560022 10106 20044 53001
Loading
Personal Weather Stations






























Interactive Weather Map
Tropical Storm Tracking
New forecast layout! Learn more

10-Day Weather Forecast

Advertisements
Track Severe Weather on mobile